sensor_id;sensor_type;location;lat;lon;timestamp;P1;durP1;ratioP1;P2;durP2;ratioP2
52456;SDS011;38369;52.840;7.082;2022-09-09T00:04:31;23.75;;;16.27;;
52456;SDS011;38369;52.840;7.082;2022-09-09T00:10:19;21.42;;;13.82;;
52456;SDS011;38369;52.840;7.082;2022-09-09T00:12:40;19.27;;;13.82;;
52456;SDS011;38369;52.840;7.082;2022-09-09T00:15:12;22.08;;;15.10;;
52456;SDS011;38369;52.840;7.082;2022-09-09T00:22:36;22.92;;;14.85;;
52456;SDS011;38369;52.840;7.082;2022-09-09T00:25:12;21.38;;;14.38;;
52456;SDS011;38369;52.840;7.082;2022-09-09T00:27:45;24.80;;;14.95;;
52456;SDS011;38369;52.840;7.082;2022-09-09T00:30:14;23.13;;;13.63;;
52456;SDS011;38369;52.840;7.082;2022-09-09T00:32:41;23.52;;;12.85;;
52456;SDS011;38369;52.840;7.082;2022-09-09T00:37:50;18.08;;;11.80;;
52456;SDS011;38369;52.840;7.082;2022-09-09T00:40:22;20.87;;;12.20;;
52456;SDS011;38369;52.840;7.082;2022-09-09T00:42:49;17.60;;;12.20;;
52456;SDS011;38369;52.840;7.082;2022-09-09T00:48:01;25.70;;;12.77;;
52456;SDS011;38369;52.840;7.082;2022-09-09T00:50:34;15.48;;;10.88;;
52456;SDS011;38369;52.840;7.082;2022-09-09T00:53:22;19.23;;;10.75;;
52456;SDS011;38369;52.840;7.082;2022-09-09T00:58:22;16.45;;;10.55;;
52456;SDS011;38369;52.840;7.082;2022-09-09T01:01:04;15.13;;;9.50;;
52456;SDS011;38369;52.840;7.082;2022-09-09T01:03:52;18.65;;;9.07;;
52456;SDS011;38369;52.840;7.082;2022-09-09T01:06:32;13.77;;;8.55;;
52456;SDS011;38369;52.840;7.082;2022-09-09T01:09:10;12.18;;;6.75;;
52456;SDS011;38369;52.840;7.082;2022-09-09T01:17:01;12.77;;;6.78;;
52456;SDS011;38369;52.840;7.082;2022-09-09T01:24:42;9.95;;;5.93;;
52456;SDS011;38369;52.840;7.082;2022-09-09T01:27:10;14.00;;;7.72;;
52456;SDS011;38369;52.840;7.082;2022-09-09T01:29:38;10.15;;;6.28;;
52456;SDS011;38369;52.840;7.082;2022-09-09T01:34:51;13.85;;;6.90;;
52456;SDS011;38369;52.840;7.082;2022-09-09T01:37:17;12.43;;;6.95;;
52456;SDS011;38369;52.840;7.082;2022-09-09T01:39:43;8.93;;;6.15;;
52456;SDS011;38369;52.840;7.082;2022-09-09T01:42:11;7.68;;;6.43;;
52456;SDS011;38369;52.840;7.082;2022-09-09T01:44:37;12.32;;;6.72;;
52456;SDS011;38369;52.840;7.082;2022-09-09T01:47:04;17.23;;;6.43;;
52456;SDS011;38369;52.840;7.082;2022-09-09T01:49:30;16.85;;;6.45;;
52456;SDS011;38369;52.840;7.082;2022-09-09T01:51:57;12.38;;;7.22;;
52456;SDS011;38369;52.840;7.082;2022-09-09T01:54:24;11.15;;;6.70;;
52456;SDS011;38369;52.840;7.082;2022-09-09T01:56:56;11.23;;;6.60;;
52456;SDS011;38369;52.840;7.082;2022-09-09T01:59:34;10.18;;;6.80;;
52456;SDS011;38369;52.840;7.082;2022-09-09T02:09:50;15.32;;;6.72;;
52456;SDS011;38369;52.840;7.082;2022-09-09T02:14:47;18.05;;;6.78;;
52456;SDS011;38369;52.840;7.082;2022-09-09T02:17:15;11.23;;;7.45;;
52456;SDS011;38369;52.840;7.082;2022-09-09T02:19:48;10.60;;;6.80;;
52456;SDS011;38369;52.840;7.082;2022-09-09T02:22:17;15.25;;;7.07;;
52456;SDS011;38369;52.840;7.082;2022-09-09T02:24:44;13.70;;;6.70;;
52456;SDS011;38369;52.840;7.082;2022-09-09T02:27:11;11.20;;;6.43;;
52456;SDS011;38369;52.840;7.082;2022-09-09T02:29:41;11.20;;;6.90;;
52456;SDS011;38369;52.840;7.082;2022-09-09T02:32:11;11.38;;;7.10;;
52456;SDS011;38369;52.840;7.082;2022-09-09T02:34:43;9.38;;;7.07;;
52456;SDS011;38369;52.840;7.082;2022-09-09T02:37:10;13.88;;;6.82;;
52456;SDS011;38369;52.840;7.082;2022-09-09T02:39:37;8.85;;;6.28;;
52456;SDS011;38369;52.840;7.082;2022-09-09T02:42:03;9.07;;;6.43;;
52456;SDS011;38369;52.840;7.082;2022-09-09T02:44:30;16.75;;;7.00;;
52456;SDS011;38369;52.840;7.082;2022-09-09T02:52:31;10.10;;;6.63;;
52456;SDS011;38369;52.840;7.082;2022-09-09T02:54:59;15.50;;;6.75;;
52456;SDS011;38369;52.840;7.082;2022-09-09T02:57:29;10.80;;;6.30;;
52456;SDS011;38369;52.840;7.082;2022-09-09T02:59:58;14.13;;;7.80;;
52456;SDS011;38369;52.840;7.082;2022-09-09T03:02:25;13.73;;;7.78;;
52456;SDS011;38369;52.840;7.082;2022-09-09T03:04:51;12.18;;;7.13;;
52456;SDS011;38369;52.840;7.082;2022-09-09T03:07:18;10.05;;;6.97;;
52456;SDS011;38369;52.840;7.082;2022-09-09T03:09:44;11.27;;;7.70;;
52456;SDS011;38369;52.840;7.082;2022-09-09T03:12:10;10.80;;;7.13;;
52456;SDS011;38369;52.840;7.082;2022-09-09T03:14:39;10.35;;;7.05;;
52456;SDS011;38369;52.840;7.082;2022-09-09T03:17:06;8.75;;;6.55;;
52456;SDS011;38369;52.840;7.082;2022-09-09T03:19:32;13.55;;;7.22;;
52456;SDS011;38369;52.840;7.082;2022-09-09T03:22:00;9.45;;;7.22;;
52456;SDS011;38369;52.840;7.082;2022-09-09T03:24:26;11.13;;;6.90;;
52456;SDS011;38369;52.840;7.082;2022-09-09T03:26:52;9.55;;;6.75;;
52456;SDS011;38369;52.840;7.082;2022-09-09T03:29:20;11.35;;;6.95;;
52456;SDS011;38369;52.840;7.082;2022-09-09T03:31:46;7.15;;;3.80;;
52456;SDS011;38369;52.840;7.082;2022-09-09T03:34:13;8.18;;;3.95;;
52456;SDS011;38369;52.840;7.082;2022-09-09T03:36:40;6.32;;;3.58;;
52456;SDS011;38369;52.840;7.082;2022-09-09T03:39:08;8.55;;;2.78;;
52456;SDS011;38369;52.840;7.082;2022-09-09T03:41:35;3.17;;;1.85;;
52456;SDS011;38369;52.840;7.082;2022-09-09T03:44:02;6.75;;;1.95;;
52456;SDS011;38369;52.840;7.082;2022-09-09T03:46:28;5.00;;;2.08;;
52456;SDS011;38369;52.840;7.082;2022-09-09T03:48:54;6.95;;;2.90;;
52456;SDS011;38369;52.840;7.082;2022-09-09T03:51:21;6.25;;;3.63;;
52456;SDS011;38369;52.840;7.082;2022-09-09T03:53:47;6.25;;;2.67;;
52456;SDS011;38369;52.840;7.082;2022-09-09T03:56:13;9.45;;;3.10;;
52456;SDS011;38369;52.840;7.082;2022-09-09T03:58:39;8.38;;;3.38;;
52456;SDS011;38369;52.840;7.082;2022-09-09T04:01:07;5.82;;;3.78;;
52456;SDS011;38369;52.840;7.082;2022-09-09T04:03:38;6.13;;;3.97;;
52456;SDS011;38369;52.840;7.082;2022-09-09T04:06:05;8.18;;;5.47;;
52456;SDS011;38369;52.840;7.082;2022-09-09T04:08:32;9.43;;;6.03;;
52456;SDS011;38369;52.840;7.082;2022-09-09T04:10:58;10.15;;;5.93;;
52456;SDS011;38369;52.840;7.082;2022-09-09T04:13:25;10.07;;;7.32;;
52456;SDS011;38369;52.840;7.082;2022-09-09T04:15:55;11.48;;;8.30;;
52456;SDS011;38369;52.840;7.082;2022-09-09T04:20:48;12.65;;;9.00;;
52456;SDS011;38369;52.840;7.082;2022-09-09T04:23:14;12.73;;;8.32;;
52456;SDS011;38369;52.840;7.082;2022-09-09T04:25:50;11.10;;;8.70;;
52456;SDS011;38369;52.840;7.082;2022-09-09T04:28:17;12.32;;;9.13;;
52456;SDS011;38369;52.840;7.082;2022-09-09T04:30:44;12.82;;;8.50;;
52456;SDS011;38369;52.840;7.082;2022-09-09T04:33:10;14.13;;;7.75;;
52456;SDS011;38369;52.840;7.082;2022-09-09T04:35:37;10.38;;;7.63;;
52456;SDS011;38369;52.840;7.082;2022-09-09T04:38:03;10.50;;;7.38;;
52456;SDS011;38369;52.840;7.082;2022-09-09T04:40:30;11.73;;;8.15;;
52456;SDS011;38369;52.840;7.082;2022-09-09T04:43:00;12.05;;;7.93;;
52456;SDS011;38369;52.840;7.082;2022-09-09T04:45:28;8.98;;;6.97;;
52456;SDS011;38369;52.840;7.082;2022-09-09T04:47:54;10.40;;;6.65;;
52456;SDS011;38369;52.840;7.082;2022-09-09T04:50:20;9.23;;;6.50;;
52456;SDS011;38369;52.840;7.082;2022-09-09T04:52:46;11.57;;;7.63;;
52456;SDS011;38369;52.840;7.082;2022-09-09T04:55:12;10.88;;;7.28;;
52456;SDS011;38369;52.840;7.082;2022-09-09T04:57:39;10.88;;;7.63;;
52456;SDS011;38369;52.840;7.082;2022-09-09T05:00:05;10.93;;;7.43;;
52456;SDS011;38369;52.840;7.082;2022-09-09T05:02:32;12.00;;;8.23;;
52456;SDS011;38369;52.840;7.082;2022-09-09T05:04:58;10.20;;;7.60;;
52456;SDS011;38369;52.840;7.082;2022-09-09T05:07:26;11.45;;;7.93;;
52456;SDS011;38369;52.840;7.082;2022-09-09T05:09:56;11.68;;;7.53;;
52456;SDS011;38369;52.840;7.082;2022-09-09T05:12:23;8.43;;;6.35;;
52456;SDS011;38369;52.840;7.082;2022-09-09T05:14:50;10.45;;;6.93;;
52456;SDS011;38369;52.840;7.082;2022-09-09T05:17:17;10.45;;;6.97;;
52456;SDS011;38369;52.840;7.082;2022-09-09T05:19:43;11.30;;;8.40;;
52456;SDS011;38369;52.840;7.082;2022-09-09T05:22:09;12.50;;;7.60;;
52456;SDS011;38369;52.840;7.082;2022-09-09T05:24:37;13.00;;;7.93;;
52456;SDS011;38369;52.840;7.082;2022-09-09T05:27:03;11.23;;;7.47;;
52456;SDS011;38369;52.840;7.082;2022-09-09T05:29:31;12.90;;;7.53;;
52456;SDS011;38369;52.840;7.082;2022-09-09T05:32:00;11.43;;;7.60;;
52456;SDS011;38369;52.840;7.082;2022-09-09T05:34:26;10.30;;;7.47;;
52456;SDS011;38369;52.840;7.082;2022-09-09T05:36:53;12.45;;;8.25;;
52456;SDS011;38369;52.840;7.082;2022-09-09T05:39:19;10.27;;;7.80;;
52456;SDS011;38369;52.840;7.082;2022-09-09T05:41:45;13.65;;;8.40;;
52456;SDS011;38369;52.840;7.082;2022-09-09T05:44:11;10.93;;;8.00;;
52456;SDS011;38369;52.840;7.082;2022-09-09T05:46:38;9.63;;;7.03;;
52456;SDS011;38369;52.840;7.082;2022-09-09T05:49:04;14.15;;;7.75;;
52456;SDS011;38369;52.840;7.082;2022-09-09T05:51:31;12.18;;;8.02;;
52456;SDS011;38369;52.840;7.082;2022-09-09T05:53:57;11.18;;;8.13;;
52456;SDS011;38369;52.840;7.082;2022-09-09T05:56:24;10.00;;;8.02;;
52456;SDS011;38369;52.840;7.082;2022-09-09T05:58:51;9.40;;;7.30;;
52456;SDS011;38369;52.840;7.082;2022-09-09T06:01:25;9.55;;;7.72;;
52456;SDS011;38369;52.840;7.082;2022-09-09T06:03:52;13.55;;;7.63;;
52456;SDS011;38369;52.840;7.082;2022-09-09T06:06:22;11.70;;;8.07;;
52456;SDS011;38369;52.840;7.082;2022-09-09T06:08:53;12.10;;;8.50;;
52456;SDS011;38369;52.840;7.082;2022-09-09T06:13:45;12.82;;;7.63;;
52456;SDS011;38369;52.840;7.082;2022-09-09T06:16:13;12.00;;;7.75;;
52456;SDS011;38369;52.840;7.082;2022-09-09T06:18:40;12.23;;;7.68;;
52456;SDS011;38369;52.840;7.082;2022-09-09T06:21:08;10.32;;;7.82;;
52456;SDS011;38369;52.840;7.082;2022-09-09T06:23:34;10.30;;;7.32;;
52456;SDS011;38369;52.840;7.082;2022-09-09T06:26:04;11.27;;;7.85;;
52456;SDS011;38369;52.840;7.082;2022-09-09T06:31:00;10.55;;;7.47;;
52456;SDS011;38369;52.840;7.082;2022-09-09T06:33:30;10.63;;;8.05;;
52456;SDS011;38369;52.840;7.082;2022-09-09T06:35:56;12.88;;;8.25;;
52456;SDS011;38369;52.840;7.082;2022-09-09T06:38:23;9.93;;;7.70;;
52456;SDS011;38369;52.840;7.082;2022-09-09T06:40:55;12.50;;;8.57;;
52456;SDS011;38369;52.840;7.082;2022-09-09T06:43:23;11.73;;;7.57;;
52456;SDS011;38369;52.840;7.082;2022-09-09T06:45:52;10.65;;;7.75;;
52456;SDS011;38369;52.840;7.082;2022-09-09T06:48:19;13.20;;;8.55;;
52456;SDS011;38369;52.840;7.082;2022-09-09T06:50:45;9.57;;;7.85;;
52456;SDS011;38369;52.840;7.082;2022-09-09T06:53:11;11.98;;;8.38;;
52456;SDS011;38369;52.840;7.082;2022-09-09T06:55:37;12.05;;;8.88;;
52456;SDS011;38369;52.840;7.082;2022-09-09T06:58:08;12.73;;;9.23;;
52456;SDS011;38369;52.840;7.082;2022-09-09T07:00:34;9.90;;;8.65;;
52456;SDS011;38369;52.840;7.082;2022-09-09T07:03:03;12.38;;;8.65;;
52456;SDS011;38369;52.840;7.082;2022-09-09T07:05:29;13.35;;;8.18;;
52456;SDS011;38369;52.840;7.082;2022-09-09T07:07:55;11.45;;;8.73;;
52456;SDS011;38369;52.840;7.082;2022-09-09T07:10:21;10.82;;;7.88;;
52456;SDS011;38369;52.840;7.082;2022-09-09T07:12:50;11.63;;;8.32;;
52456;SDS011;38369;52.840;7.082;2022-09-09T07:15:17;14.48;;;8.20;;
52456;SDS011;38369;52.840;7.082;2022-09-09T07:17:47;10.02;;;7.80;;
52456;SDS011;38369;52.840;7.082;2022-09-09T07:20:14;18.65;;;8.52;;
52456;SDS011;38369;52.840;7.082;2022-09-09T07:22:40;14.25;;;8.10;;
52456;SDS011;38369;52.840;7.082;2022-09-09T07:25:06;12.82;;;7.65;;
52456;SDS011;38369;52.840;7.082;2022-09-09T07:27:33;10.00;;;7.43;;
52456;SDS011;38369;52.840;7.082;2022-09-09T07:29:59;12.20;;;8.43;;
52456;SDS011;38369;52.840;7.082;2022-09-09T07:32:25;12.20;;;8.25;;
52456;SDS011;38369;52.840;7.082;2022-09-09T07:34:51;12.88;;;8.23;;
52456;SDS011;38369;52.840;7.082;2022-09-09T07:37:17;9.32;;;6.63;;
52456;SDS011;38369;52.840;7.082;2022-09-09T07:39:44;9.38;;;6.60;;
52456;SDS011;38369;52.840;7.082;2022-09-09T07:42:10;10.60;;;7.10;;
52456;SDS011;38369;52.840;7.082;2022-09-09T07:44:36;7.30;;;5.95;;
52456;SDS011;38369;52.840;7.082;2022-09-09T07:47:04;11.07;;;6.45;;
52456;SDS011;38369;52.840;7.082;2022-09-09T07:49:30;10.40;;;6.38;;
52456;SDS011;38369;52.840;7.082;2022-09-09T07:51:57;10.00;;;5.97;;
52456;SDS011;38369;52.840;7.082;2022-09-09T07:54:24;9.60;;;6.32;;
52456;SDS011;38369;52.840;7.082;2022-09-09T07:56:51;12.30;;;6.68;;
52456;SDS011;38369;52.840;7.082;2022-09-09T07:59:21;10.45;;;6.00;;
52456;SDS011;38369;52.840;7.082;2022-09-09T08:01:50;6.85;;;5.38;;
52456;SDS011;38369;52.840;7.082;2022-09-09T08:04:19;11.52;;;7.35;;
52456;SDS011;38369;52.840;7.082;2022-09-09T08:06:49;10.13;;;6.72;;
52456;SDS011;38369;52.840;7.082;2022-09-09T08:09:18;11.80;;;6.45;;
52456;SDS011;38369;52.840;7.082;2022-09-09T08:11:44;12.10;;;6.43;;
52456;SDS011;38369;52.840;7.082;2022-09-09T08:14:10;12.55;;;7.10;;
52456;SDS011;38369;52.840;7.082;2022-09-09T08:16:41;11.05;;;7.05;;
52456;SDS011;38369;52.840;7.082;2022-09-09T08:19:07;8.82;;;6.45;;
52456;SDS011;38369;52.840;7.082;2022-09-09T08:21:34;9.98;;;6.45;;
52456;SDS011;38369;52.840;7.082;2022-09-09T08:24:02;11.55;;;7.57;;
52456;SDS011;38369;52.840;7.082;2022-09-09T08:26:29;12.77;;;7.35;;
52456;SDS011;38369;52.840;7.082;2022-09-09T08:28:56;13.70;;;7.72;;
52456;SDS011;38369;52.840;7.082;2022-09-09T08:31:24;10.48;;;6.80;;
52456;SDS011;38369;52.840;7.082;2022-09-09T08:33:50;8.05;;;6.45;;
52456;SDS011;38369;52.840;7.082;2022-09-09T08:36:17;12.60;;;7.88;;
52456;SDS011;38369;52.840;7.082;2022-09-09T08:38:43;12.85;;;6.30;;
52456;SDS011;38369;52.840;7.082;2022-09-09T08:43:46;12.27;;;5.85;;
52456;SDS011;38369;52.840;7.082;2022-09-09T08:46:19;10.00;;;6.03;;
52456;SDS011;38369;52.840;7.082;2022-09-09T08:51:20;12.15;;;5.82;;
52456;SDS011;38369;52.840;7.082;2022-09-09T08:53:47;11.35;;;5.95;;
52456;SDS011;38369;52.840;7.082;2022-09-09T08:56:14;7.15;;;5.50;;
52456;SDS011;38369;52.840;7.082;2022-09-09T08:58:47;8.30;;;5.03;;
52456;SDS011;38369;52.840;7.082;2022-09-09T09:12:19;9.35;;;5.90;;
52456;SDS011;38369;52.840;7.082;2022-09-09T09:14:46;13.30;;;5.18;;
52456;SDS011;38369;52.840;7.082;2022-09-09T09:17:20;15.27;;;6.22;;
52456;SDS011;38369;52.840;7.082;2022-09-09T09:19:49;15.10;;;5.63;;
52456;SDS011;38369;52.840;7.082;2022-09-09T09:22:22;11.73;;;5.63;;
52456;SDS011;38369;52.840;7.082;2022-09-09T09:25:12;11.40;;;5.07;;
52456;SDS011;38369;52.840;7.082;2022-09-09T09:30:18;10.73;;;4.22;;
52456;SDS011;38369;52.840;7.082;2022-09-09T09:35:17;12.23;;;4.07;;
52456;SDS011;38369;52.840;7.082;2022-09-09T09:37:43;11.98;;;4.57;;
52456;SDS011;38369;52.840;7.082;2022-09-09T09:42:36;10.75;;;3.50;;
52456;SDS011;38369;52.840;7.082;2022-09-09T09:45:16;8.98;;;3.58;;
52456;SDS011;38369;52.840;7.082;2022-09-09T09:47:45;8.07;;;3.67;;
52456;SDS011;38369;52.840;7.082;2022-09-09T09:50:19;17.08;;;3.58;;
52456;SDS011;38369;52.840;7.082;2022-09-09T09:52:53;11.38;;;3.70;;
52456;SDS011;38369;52.840;7.082;2022-09-09T09:55:20;9.45;;;3.08;;
52456;SDS011;38369;52.840;7.082;2022-09-09T09:57:47;10.93;;;3.38;;
52456;SDS011;38369;52.840;7.082;2022-09-09T10:00:18;7.70;;;3.15;;
52456;SDS011;38369;52.840;7.082;2022-09-09T10:02:45;10.02;;;3.83;;
52456;SDS011;38369;52.840;7.082;2022-09-09T10:07:41;10.63;;;3.92;;
52456;SDS011;38369;52.840;7.082;2022-09-09T10:10:25;8.57;;;3.05;;
52456;SDS011;38369;52.840;7.082;2022-09-09T10:12:57;8.23;;;2.80;;
52456;SDS011;38369;52.840;7.082;2022-09-09T10:23:28;8.75;;;2.53;;
52456;SDS011;38369;52.840;7.082;2022-09-09T10:31:19;11.48;;;3.45;;
52456;SDS011;38369;52.840;7.082;2022-09-09T10:36:27;7.65;;;3.00;;
52456;SDS011;38369;52.840;7.082;2022-09-09T10:44:14;9.88;;;2.42;;
52456;SDS011;38369;52.840;7.082;2022-09-09T10:46:53;7.70;;;2.58;;
52456;SDS011;38369;52.840;7.082;2022-09-09T10:54:24;11.38;;;2.40;;
52456;SDS011;38369;52.840;7.082;2022-09-09T10:56:55;10.98;;;2.88;;
52456;SDS011;38369;52.840;7.082;2022-09-09T10:59:25;6.68;;;3.15;;
52456;SDS011;38369;52.840;7.082;2022-09-09T11:02:01;9.00;;;2.50;;
52456;SDS011;38369;52.840;7.082;2022-09-09T11:04:30;11.07;;;2.67;;
52456;SDS011;38369;52.840;7.082;2022-09-09T11:06:57;10.88;;;2.75;;
52456;SDS011;38369;52.840;7.082;2022-09-09T11:09:30;4.53;;;2.10;;
52456;SDS011;38369;52.840;7.082;2022-09-09T11:11:57;7.00;;;2.20;;
52456;SDS011;38369;52.840;7.082;2022-09-09T11:14:36;5.65;;;2.05;;
52456;SDS011;38369;52.840;7.082;2022-09-09T11:17:04;8.30;;;1.75;;
52456;SDS011;38369;52.840;7.082;2022-09-09T11:19:36;5.70;;;1.63;;
52456;SDS011;38369;52.840;7.082;2022-09-09T11:24:57;9.88;;;2.55;;
52456;SDS011;38369;52.840;7.082;2022-09-09T11:37:50;9.02;;;2.17;;
52456;SDS011;38369;52.840;7.082;2022-09-09T11:40:23;10.57;;;2.25;;
52456;SDS011;38369;52.840;7.082;2022-09-09T11:43:00;9.40;;;1.90;;
52456;SDS011;38369;52.840;7.082;2022-09-09T11:45:30;8.90;;;1.50;;
52456;SDS011;38369;52.840;7.082;2022-09-09T11:48:01;7.70;;;1.58;;
52456;SDS011;38369;52.840;7.082;2022-09-09T11:50:34;10.43;;;1.90;;
52456;SDS011;38369;52.840;7.082;2022-09-09T11:55:39;9.20;;;2.85;;
52456;SDS011;38369;52.840;7.082;2022-09-09T11:58:06;5.55;;;1.50;;
52456;SDS011;38369;52.840;7.082;2022-09-09T12:00:42;6.45;;;2.05;;
52456;SDS011;38369;52.840;7.082;2022-09-09T12:05:56;7.65;;;1.95;;
52456;SDS011;38369;52.840;7.082;2022-09-09T12:08:29;7.40;;;1.70;;
52456;SDS011;38369;52.840;7.082;2022-09-09T12:10:57;13.70;;;2.42;;
52456;SDS011;38369;52.840;7.082;2022-09-09T12:13:25;8.52;;;2.72;;
52456;SDS011;38369;52.840;7.082;2022-09-09T12:15:55;5.07;;;1.60;;
52456;SDS011;38369;52.840;7.082;2022-09-09T12:18:22;5.38;;;2.10;;
52456;SDS011;38369;52.840;7.082;2022-09-09T12:20:54;4.20;;;1.38;;
52456;SDS011;38369;52.840;7.082;2022-09-09T12:31:07;5.38;;;0.90;;
52456;SDS011;38369;52.840;7.082;2022-09-09T12:33:35;5.70;;;1.27;;
52456;SDS011;38369;52.840;7.082;2022-09-09T12:36:02;4.95;;;1.50;;
52456;SDS011;38369;52.840;7.082;2022-09-09T12:38:34;6.25;;;1.50;;
52456;SDS011;38369;52.840;7.082;2022-09-09T12:41:01;5.38;;;1.38;;
52456;SDS011;38369;52.840;7.082;2022-09-09T12:43:28;3.25;;;1.35;;
52456;SDS011;38369;52.840;7.082;2022-09-09T12:45:58;3.63;;;1.45;;
52456;SDS011;38369;52.840;7.082;2022-09-09T12:48:28;5.88;;;1.20;;
52456;SDS011;38369;52.840;7.082;2022-09-09T12:50:55;5.32;;;0.98;;
52456;SDS011;38369;52.840;7.082;2022-09-09T12:53:23;5.10;;;1.30;;
52456;SDS011;38369;52.840;7.082;2022-09-09T12:56:01;4.67;;;1.07;;
52456;SDS011;38369;52.840;7.082;2022-09-09T12:58:28;5.55;;;1.25;;
52456;SDS011;38369;52.840;7.082;2022-09-09T13:03:25;5.97;;;1.50;;
52456;SDS011;38369;52.840;7.082;2022-09-09T13:05:51;4.38;;;1.27;;
52456;SDS011;38369;52.840;7.082;2022-09-09T13:08:18;9.48;;;1.88;;
52456;SDS011;38369;52.840;7.082;2022-09-09T13:11:01;4.93;;;1.60;;
52456;SDS011;38369;52.840;7.082;2022-09-09T13:13:29;6.47;;;1.67;;
52456;SDS011;38369;52.840;7.082;2022-09-09T13:15:57;5.78;;;1.27;;
52456;SDS011;38369;52.840;7.082;2022-09-09T13:18:25;5.97;;;1.35;;
52456;SDS011;38369;52.840;7.082;2022-09-09T13:20:52;3.70;;;0.90;;
52456;SDS011;38369;52.840;7.082;2022-09-09T13:23:19;3.20;;;0.98;;
52456;SDS011;38369;52.840;7.082;2022-09-09T13:26:05;3.20;;;0.82;;
52456;SDS011;38369;52.840;7.082;2022-09-09T13:28:33;1.73;;;0.63;;
52456;SDS011;38369;52.840;7.082;2022-09-09T13:33:30;4.45;;;1.00;;
52456;SDS011;38369;52.840;7.082;2022-09-09T13:36:02;4.22;;;1.25;;
52456;SDS011;38369;52.840;7.082;2022-09-09T13:38:30;4.90;;;1.00;;
52456;SDS011;38369;52.840;7.082;2022-09-09T13:41:00;8.85;;;1.33;;
52456;SDS011;38369;52.840;7.082;2022-09-09T13:43:41;4.10;;;1.30;;
52456;SDS011;38369;52.840;7.082;2022-09-09T13:49:00;7.50;;;1.60;;
52456;SDS011;38369;52.840;7.082;2022-09-09T13:51:32;7.28;;;1.40;;
52456;SDS011;38369;52.840;7.082;2022-09-09T13:53:59;8.35;;;1.60;;
52456;SDS011;38369;52.840;7.082;2022-09-09T13:56:26;4.88;;;1.95;;
52456;SDS011;38369;52.840;7.082;2022-09-09T13:58:52;6.47;;;1.50;;
52456;SDS011;38369;52.840;7.082;2022-09-09T14:01:18;6.85;;;2.17;;
52456;SDS011;38369;52.840;7.082;2022-09-09T14:03:44;3.10;;;1.23;;
52456;SDS011;38369;52.840;7.082;2022-09-09T14:06:10;3.78;;;1.58;;
52456;SDS011;38369;52.840;7.082;2022-09-09T14:08:36;4.80;;;1.35;;
52456;SDS011;38369;52.840;7.082;2022-09-09T14:11:04;4.10;;;1.48;;
52456;SDS011;38369;52.840;7.082;2022-09-09T14:13:30;3.90;;;1.65;;
52456;SDS011;38369;52.840;7.082;2022-09-09T14:15:56;5.25;;;1.45;;
52456;SDS011;38369;52.840;7.082;2022-09-09T14:18:22;7.75;;;1.98;;
52456;SDS011;38369;52.840;7.082;2022-09-09T14:20:50;7.43;;;1.25;;
52456;SDS011;38369;52.840;7.082;2022-09-09T14:23:16;3.50;;;1.20;;
52456;SDS011;38369;52.840;7.082;2022-09-09T14:25:43;6.50;;;1.65;;
52456;SDS011;38369;52.840;7.082;2022-09-09T14:28:10;3.85;;;1.13;;
52456;SDS011;38369;52.840;7.082;2022-09-09T14:30:37;6.45;;;1.08;;
52456;SDS011;38369;52.840;7.082;2022-09-09T14:33:04;4.65;;;1.42;;
52456;SDS011;38369;52.840;7.082;2022-09-09T14:35:30;4.75;;;1.35;;
52456;SDS011;38369;52.840;7.082;2022-09-09T14:37:56;4.60;;;1.15;;
52456;SDS011;38369;52.840;7.082;2022-09-09T14:40:22;2.90;;;0.80;;
52456;SDS011;38369;52.840;7.082;2022-09-09T14:42:48;3.42;;;1.10;;
52456;SDS011;38369;52.840;7.082;2022-09-09T14:45:14;6.65;;;1.73;;
52456;SDS011;38369;52.840;7.082;2022-09-09T14:47:40;4.18;;;1.35;;
52456;SDS011;38369;52.840;7.082;2022-09-09T14:50:06;6.90;;;1.20;;
52456;SDS011;38369;52.840;7.082;2022-09-09T14:52:33;5.05;;;1.27;;
52456;SDS011;38369;52.840;7.082;2022-09-09T14:54:59;4.32;;;0.98;;
52456;SDS011;38369;52.840;7.082;2022-09-09T14:57:25;2.15;;;0.95;;
52456;SDS011;38369;52.840;7.082;2022-09-09T14:59:51;6.05;;;1.10;;
52456;SDS011;38369;52.840;7.082;2022-09-09T15:02:18;4.60;;;1.27;;
52456;SDS011;38369;52.840;7.082;2022-09-09T15:04:44;4.03;;;1.50;;
52456;SDS011;38369;52.840;7.082;2022-09-09T15:07:10;5.25;;;1.48;;
52456;SDS011;38369;52.840;7.082;2022-09-09T15:09:37;4.47;;;1.02;;
52456;SDS011;38369;52.840;7.082;2022-09-09T15:12:03;4.80;;;0.90;;
52456;SDS011;38369;52.840;7.082;2022-09-09T15:14:29;2.90;;;1.15;;
52456;SDS011;38369;52.840;7.082;2022-09-09T15:16:55;2.45;;;0.60;;
52456;SDS011;38369;52.840;7.082;2022-09-09T15:19:21;4.80;;;0.75;;
52456;SDS011;38369;52.840;7.082;2022-09-09T15:21:48;1.63;;;0.95;;
52456;SDS011;38369;52.840;7.082;2022-09-09T15:24:14;1.55;;;0.93;;
52456;SDS011;38369;52.840;7.082;2022-09-09T15:26:41;4.18;;;0.80;;
52456;SDS011;38369;52.840;7.082;2022-09-09T15:29:07;2.00;;;0.70;;
52456;SDS011;38369;52.840;7.082;2022-09-09T15:31:33;2.22;;;0.60;;
52456;SDS011;38369;52.840;7.082;2022-09-09T15:34:03;4.13;;;0.90;;
52456;SDS011;38369;52.840;7.082;2022-09-09T15:36:36;2.40;;;0.90;;
52456;SDS011;38369;52.840;7.082;2022-09-09T15:39:03;2.70;;;1.08;;
52456;SDS011;38369;52.840;7.082;2022-09-09T15:41:30;3.50;;;0.90;;
52456;SDS011;38369;52.840;7.082;2022-09-09T15:43:59;2.17;;;1.00;;
52456;SDS011;38369;52.840;7.082;2022-09-09T15:46:27;5.45;;;1.52;;
52456;SDS011;38369;52.840;7.082;2022-09-09T15:48:57;2.35;;;0.93;;
52456;SDS011;38369;52.840;7.082;2022-09-09T15:51:24;3.05;;;0.95;;
52456;SDS011;38369;52.840;7.082;2022-09-09T15:53:54;3.72;;;1.13;;
52456;SDS011;38369;52.840;7.082;2022-09-09T15:56:21;3.17;;;0.90;;
52456;SDS011;38369;52.840;7.082;2022-09-09T15:58:47;2.55;;;0.98;;
52456;SDS011;38369;52.840;7.082;2022-09-09T16:01:13;5.07;;;1.02;;
52456;SDS011;38369;52.840;7.082;2022-09-09T16:03:42;2.35;;;0.90;;
52456;SDS011;38369;52.840;7.082;2022-09-09T16:06:11;3.50;;;1.20;;
52456;SDS011;38369;52.840;7.082;2022-09-09T16:08:39;5.85;;;1.20;;
52456;SDS011;38369;52.840;7.082;2022-09-09T16:11:09;2.50;;;0.93;;
52456;SDS011;38369;52.840;7.082;2022-09-09T16:13:36;3.50;;;0.80;;
52456;SDS011;38369;52.840;7.082;2022-09-09T16:16:03;3.53;;;1.10;;
52456;SDS011;38369;52.840;7.082;2022-09-09T16:18:36;6.43;;;1.88;;
52456;SDS011;38369;52.840;7.082;2022-09-09T16:21:03;1.35;;;0.73;;
52456;SDS011;38369;52.840;7.082;2022-09-09T16:23:30;5.05;;;0.90;;
52456;SDS011;38369;52.840;7.082;2022-09-09T16:25:56;2.10;;;0.80;;
52456;SDS011;38369;52.840;7.082;2022-09-09T16:28:22;2.13;;;1.00;;
52456;SDS011;38369;52.840;7.082;2022-09-09T16:30:48;2.65;;;1.00;;
52456;SDS011;38369;52.840;7.082;2022-09-09T16:33:14;1.60;;;1.08;;
52456;SDS011;38369;52.840;7.082;2022-09-09T16:35:41;1.65;;;1.00;;
52456;SDS011;38369;52.840;7.082;2022-09-09T16:38:07;2.03;;;1.10;;
52456;SDS011;38369;52.840;7.082;2022-09-09T16:40:33;2.83;;;1.33;;
52456;SDS011;38369;52.840;7.082;2022-09-09T16:43:00;3.85;;;1.30;;
52456;SDS011;38369;52.840;7.082;2022-09-09T16:45:26;2.42;;;1.25;;
52456;SDS011;38369;52.840;7.082;2022-09-09T16:47:52;3.53;;;1.55;;
52456;SDS011;38369;52.840;7.082;2022-09-09T16:50:19;2.58;;;1.27;;
52456;SDS011;38369;52.840;7.082;2022-09-09T16:52:45;1.73;;;1.13;;
52456;SDS011;38369;52.840;7.082;2022-09-09T16:55:11;3.08;;;1.30;;
52456;SDS011;38369;52.840;7.082;2022-09-09T16:57:37;2.08;;;1.13;;
52456;SDS011;38369;52.840;7.082;2022-09-09T17:00:03;5.28;;;1.75;;
52456;SDS011;38369;52.840;7.082;2022-09-09T17:02:31;3.88;;;1.80;;
52456;SDS011;38369;52.840;7.082;2022-09-09T17:04:58;3.88;;;1.70;;
52456;SDS011;38369;52.840;7.082;2022-09-09T17:07:24;2.78;;;1.10;;
52456;SDS011;38369;52.840;7.082;2022-09-09T17:09:50;7.22;;;1.67;;